sensor_id;sensor_type;location;lat;lon;timestamp;pressure;altitude;pressure_sealevel;temperature;humidity
7433;BME280;32233;49.500;7.764;2023-09-07T00:00:59;98813.50;;;13.69;100.00
7433;BME280;32233;49.500;7.764;2023-09-07T00:03:27;98818.19;;;13.74;100.00
7433;BME280;32233;49.500;7.764;2023-09-07T00:05:54;98815.28;;;13.75;100.00
7433;BME280;32233;49.500;7.764;2023-09-07T00:08:21;98806.34;;;13.70;100.00
7433;BME280;32233;49.500;7.764;2023-09-07T00:10:47;98804.72;;;13.69;100.00
7433;BME280;32233;49.500;7.764;2023-09-07T00:13:14;98804.72;;;13.69;100.00
7433;BME280;32233;49.500;7.764;2023-09-07T00:15:40;98807.97;;;13.71;100.00
7433;BME280;32233;49.500;7.764;2023-09-07T00:18:07;98810.22;;;13.74;100.00
7433;BME280;32233;49.500;7.764;2023-09-07T00:20:34;98811.81;;;13.81;100.00
7433;BME280;32233;49.500;7.764;2023-09-07T00:23:01;98805.94;;;13.73;100.00
7433;BME280;32233;49.500;7.764;2023-09-07T00:25:29;98808.59;;;13.73;100.00
7433;BME280;32233;49.500;7.764;2023-09-07T00:27:56;98801.81;;;13.77;100.00
7433;BME280;32233;49.500;7.764;2023-09-07T00:30:22;98804.25;;;13.78;100.00
7433;BME280;32233;49.500;7.764;2023-09-07T00:32:49;98807.31;;;13.82;100.00
7433;BME280;32233;49.500;7.764;2023-09-07T00:35:15;98806.31;;;13.76;100.00
7433;BME280;32233;49.500;7.764;2023-09-07T00:37:42;98802.63;;;13.77;100.00
7433;BME280;32233;49.500;7.764;2023-09-07T00:40:09;98794.44;;;13.79;100.00
7433;BME280;32233;49.500;7.764;2023-09-07T00:42:36;98794.25;;;13.80;100.00
7433;BME280;32233;49.500;7.764;2023-09-07T00:45:03;98799.34;;;13.75;100.00
7433;BME280;32233;49.500;7.764;2023-09-07T00:47:33;98791.03;;;13.72;100.00
7433;BME280;32233;49.500;7.764;2023-09-07T00:50:03;98797.72;;;13.74;100.00
7433;BME280;32233;49.500;7.764;2023-09-07T00:52:34;98790.56;;;13.75;100.00
7433;BME280;32233;49.500;7.764;2023-09-07T00:55:02;98792.84;;;13.71;100.00
7433;BME280;32233;49.500;7.764;2023-09-07T00:57:30;98799.00;;;13.72;100.00
7433;BME280;32233;49.500;7.764;2023-09-07T00:59:57;98788.56;;;13.70;100.00
7433;BME280;32233;49.500;7.764;2023-09-07T01:02:24;98794.91;;;13.69;100.00
7433;BME280;32233;49.500;7.764;2023-09-07T01:04:51;98791.22;;;13.70;100.00
7433;BME280;32233;49.500;7.764;2023-09-07T01:07:25;98786.13;;;13.69;100.00
7433;BME280;32233;49.500;7.764;2023-09-07T01:09:54;98791.22;;;13.70;100.00
7433;BME280;32233;49.500;7.764;2023-09-07T01:12:22;98782.84;;;13.67;100.00
7433;BME280;32233;49.500;7.764;2023-09-07T01:14:49;98782.84;;;13.67;100.00
7433;BME280;32233;49.500;7.764;2023-09-07T01:17:16;98784.50;;;13.68;100.00
7433;BME280;32233;49.500;7.764;2023-09-07T01:19:44;98781.84;;;13.68;100.00
7433;BME280;32233;49.500;7.764;2023-09-07T01:22:11;98778.00;;;13.63;100.00
7433;BME280;32233;49.500;7.764;2023-09-07T01:24:38;98785.72;;;13.65;100.00
7433;BME280;32233;49.500;7.764;2023-09-07T01:27:05;98786.16;;;13.62;100.00
7433;BME280;32233;49.500;7.764;2023-09-07T01:29:33;98784.53;;;13.61;100.00
7433;BME280;32233;49.500;7.764;2023-09-07T01:32:00;98776.59;;;13.54;100.00
7433;BME280;32233;49.500;7.764;2023-09-07T01:34:27;98772.13;;;13.48;100.00
7433;BME280;32233;49.500;7.764;2023-09-07T01:36:54;98778.28;;;13.42;100.00
7433;BME280;32233;49.500;7.764;2023-09-07T01:39:21;98776.88;;;13.40;100.00
7433;BME280;32233;49.500;7.764;2023-09-07T01:41:48;98776.66;;;13.41;100.00
7433;BME280;32233;49.500;7.764;2023-09-07T01:44:15;98782.13;;;13.46;100.00
7433;BME280;32233;49.500;7.764;2023-09-07T01:46:41;98773.16;;;13.47;100.00
7433;BME280;32233;49.500;7.764;2023-09-07T01:49:08;98772.13;;;13.48;100.00
7433;BME280;32233;49.500;7.764;2023-09-07T01:51:35;98774.78;;;13.48;100.00
7433;BME280;32233;49.500;7.764;2023-09-07T01:54:03;98770.31;;;13.42;100.00
7433;BME280;32233;49.500;7.764;2023-09-07T01:56:30;98772.56;;;13.38;100.00
7433;BME280;32233;49.500;7.764;2023-09-07T01:58:57;98778.91;;;13.37;100.00
7433;BME280;32233;49.500;7.764;2023-09-07T02:01:29;98773.75;;;13.49;100.00
7433;BME280;32233;49.500;7.764;2023-09-07T02:03:56;98778.22;;;13.55;100.00
7433;BME280;32233;49.500;7.764;2023-09-07T02:06:23;98770.81;;;13.64;100.00
7433;BME280;32233;49.500;7.764;2023-09-07T02:08:50;98776.53;;;13.68;100.00
7433;BME280;32233;49.500;7.764;2023-09-07T02:11:16;98769.78;;;13.72;100.00
7433;BME280;32233;49.500;7.764;2023-09-07T02:13:43;98772.38;;;13.78;100.00
7433;BME280;32233;49.500;7.764;2023-09-07T02:16:10;98771.78;;;13.76;100.00
7433;BME280;32233;49.500;7.764;2023-09-07T02:18:37;98774.84;;;13.73;100.00
7433;BME280;32233;49.500;7.764;2023-09-07T02:21:09;98777.50;;;13.73;100.00
7433;BME280;32233;49.500;7.764;2023-09-07T02:23:36;98780.56;;;13.77;100.00
7433;BME280;32233;49.500;7.764;2023-09-07T02:26:04;98768.66;;;13.79;100.00
7433;BME280;32233;49.500;7.764;2023-09-07T02:28:31;98771.31;;;13.79;100.00
7433;BME280;32233;49.500;7.764;2023-09-07T02:31:05;98772.38;;;13.78;100.00
7433;BME280;32233;49.500;7.764;2023-09-07T02:33:32;98775.53;;;13.62;100.00
7433;BME280;32233;49.500;7.764;2023-09-07T02:35:59;98782.53;;;13.50;100.00
7433;BME280;32233;49.500;7.764;2023-09-07T02:38:26;98779.31;;;13.34;100.00
7433;BME280;32233;49.500;7.764;2023-09-07T02:40:55;98780.59;;;13.32;100.00
7433;BME280;32233;49.500;7.764;2023-09-07T02:43:22;98775.69;;;13.29;100.00
7433;BME280;32233;49.500;7.764;2023-09-07T02:45:50;98783.25;;;13.25;100.00
7433;BME280;32233;49.500;7.764;2023-09-07T02:48:19;98776.53;;;13.23;100.00
7433;BME280;32233;49.500;7.764;2023-09-07T02:50:48;98778.75;;;13.26;100.00
7433;BME280;32233;49.500;7.764;2023-09-07T02:53:19;98778.56;;;13.27;100.00
7433;BME280;32233;49.500;7.764;2023-09-07T02:55:46;98771.41;;;13.21;100.00
7433;BME280;32233;49.500;7.764;2023-09-07T02:58:13;98772.84;;;13.17;100.00
7433;BME280;32233;49.500;7.764;2023-09-07T03:00:44;98775.91;;;13.27;100.00
7433;BME280;32233;49.500;7.764;2023-09-07T03:03:13;98774.28;;;13.20;100.00
7433;BME280;32233;49.500;7.764;2023-09-07T03:05:43;98771.84;;;13.11;100.00
7433;BME280;32233;49.500;7.764;2023-09-07T03:08:10;98772.28;;;13.02;100.00
7433;BME280;32233;49.500;7.764;2023-09-07T03:10:37;98761.88;;;12.94;100.00
7433;BME280;32233;49.500;7.764;2023-09-07T03:13:09;98768.63;;;12.96;100.00
7433;BME280;32233;49.500;7.764;2023-09-07T03:15:36;98762.28;;;12.97;100.00
7433;BME280;32233;49.500;7.764;2023-09-07T03:18:07;98766.38;;;13.06;100.00
7433;BME280;32233;49.500;7.764;2023-09-07T03:20:36;98765.34;;;13.07;100.00
7433;BME280;32233;49.500;7.764;2023-09-07T03:23:03;98769.19;;;13.05;100.00
7433;BME280;32233;49.500;7.764;2023-09-07T03:25:30;98769.03;;;13.00;100.00
7433;BME280;32233;49.500;7.764;2023-09-07T03:27:57;98768.63;;;12.96;100.00
7433;BME280;32233;49.500;7.764;2023-09-07T03:30:24;98774.97;;;12.88;100.00
7433;BME280;32233;49.500;7.764;2023-09-07T03:32:52;98760.31;;;12.86;100.00
7433;BME280;32233;49.500;7.764;2023-09-07T03:35:19;98766.19;;;12.88;100.00
7433;BME280;32233;49.500;7.764;2023-09-07T03:37:45;98765.78;;;12.84;100.00
7433;BME280;32233;49.500;7.764;2023-09-07T03:40:12;98764.16;;;12.77;100.00
7433;BME280;32233;49.500;7.764;2023-09-07T03:42:39;98763.41;;;12.70;100.00
7433;BME280;32233;49.500;7.764;2023-09-07T03:45:08;98760.72;;;12.83;100.00
7433;BME280;32233;49.500;7.764;2023-09-07T03:47:34;98761.28;;;12.85;100.00
7433;BME280;32233;49.500;7.764;2023-09-07T03:50:01;98769.09;;;12.67;100.00
7433;BME280;32233;49.500;7.764;2023-09-07T03:52:30;98761.56;;;12.63;100.00
7433;BME280;32233;49.500;7.764;2023-09-07T03:54:59;98761.78;;;12.62;100.00
7433;BME280;32233;49.500;7.764;2023-09-07T03:57:27;98757.47;;;12.68;100.00
7433;BME280;32233;49.500;7.764;2023-09-07T03:59:54;98756.88;;;12.66;100.00
7433;BME280;32233;49.500;7.764;2023-09-07T04:02:23;98762.78;;;12.68;100.00
7433;BME280;32233;49.500;7.764;2023-09-07T04:04:50;98758.91;;;12.70;100.00
7433;BME280;32233;49.500;7.764;2023-09-07T04:07:17;98759.50;;;12.72;100.00
7433;BME280;32233;49.500;7.764;2023-09-07T04:09:45;98754.59;;;12.69;100.00
7433;BME280;32233;49.500;7.764;2023-09-07T04:12:12;98762.78;;;12.74;100.00
7433;BME280;32233;49.500;7.764;2023-09-07T04:14:39;98755.22;;;12.78;100.00
7433;BME280;32233;49.500;7.764;2023-09-07T04:17:06;98757.88;;;12.64;100.00
7433;BME280;32233;49.500;7.764;2023-09-07T04:19:33;98761.97;;;12.60;100.00
7433;BME280;32233;49.500;7.764;2023-09-07T04:22:00;98753.81;;;12.55;100.00
7433;BME280;32233;49.500;7.764;2023-09-07T04:24:28;98758.09;;;12.56;100.00
7433;BME280;32233;49.500;7.764;2023-09-07T04:27:01;98754.84;;;12.54;100.00
7433;BME280;32233;49.500;7.764;2023-09-07T04:29:29;98757.47;;;12.68;100.00
7433;BME280;32233;49.500;7.764;2023-09-07T04:31:57;98758.47;;;12.73;100.00
7433;BME280;32233;49.500;7.764;2023-09-07T04:34:24;98761.97;;;12.74;100.00
7433;BME280;32233;49.500;7.764;2023-09-07T04:36:52;98764.78;;;12.72;100.00
7433;BME280;32233;49.500;7.764;2023-09-07T04:39:19;98755.84;;;12.67;100.00
7433;BME280;32233;49.500;7.764;2023-09-07T04:41:46;98756.25;;;12.57;100.00
7433;BME280;32233;49.500;7.764;2023-09-07T04:44:13;98763.00;;;12.39;100.00
7433;BME280;32233;49.500;7.764;2023-09-07T04:46:40;98763.22;;;12.38;100.00
7433;BME280;32233;49.500;7.764;2023-09-07T04:49:09;98764.84;;;12.26;100.00
7433;BME280;32233;49.500;7.764;2023-09-07T04:51:36;98769.75;;;12.29;100.00
7433;BME280;32233;49.500;7.764;2023-09-07T04:54:02;98771.56;;;12.28;100.00
7433;BME280;32233;49.500;7.764;2023-09-07T04:56:30;98769.34;;;12.25;100.00
7433;BME280;32233;49.500;7.764;2023-09-07T04:58:56;98772.41;;;12.22;100.00
7433;BME280;32233;49.500;7.764;2023-09-07T05:01:24;98774.44;;;12.27;100.00
7433;BME280;32233;49.500;7.764;2023-09-07T05:03:52;98770.97;;;12.26;100.00
7433;BME280;32233;49.500;7.764;2023-09-07T05:06:21;98779.34;;;12.30;100.00
7433;BME280;32233;49.500;7.764;2023-09-07T05:08:50;98774.84;;;12.30;100.00
7433;BME280;32233;49.500;7.764;2023-09-07T05:11:17;98779.94;;;12.45;100.00
7433;BME280;32233;49.500;7.764;2023-09-07T05:13:43;98777.69;;;12.42;100.00
7433;BME280;32233;49.500;7.764;2023-09-07T05:16:10;98776.88;;;12.42;100.00
7433;BME280;32233;49.500;7.764;2023-09-07T05:18:37;98782.59;;;12.38;100.00
7433;BME280;32233;49.500;7.764;2023-09-07T05:21:14;98784.44;;;12.38;100.00
7433;BME280;32233;49.500;7.764;2023-09-07T05:23:41;98778.69;;;12.48;100.00
7433;BME280;32233;49.500;7.764;2023-09-07T05:26:08;98779.94;;;12.52;100.00
7433;BME280;32233;49.500;7.764;2023-09-07T05:28:35;98783.81;;;12.62;100.00
7433;BME280;32233;49.500;7.764;2023-09-07T05:31:02;98781.16;;;12.62;100.00
7433;BME280;32233;49.500;7.764;2023-09-07T05:33:30;98784.72;;;13.01;100.00
7433;BME280;32233;49.500;7.764;2023-09-07T05:35:57;98774.69;;;13.68;100.00
7433;BME280;32233;49.500;7.764;2023-09-07T05:38:23;98785.50;;;14.30;100.00
7433;BME280;32233;49.500;7.764;2023-09-07T05:40:50;98787.03;;;15.43;100.00
7433;BME280;32233;49.500;7.764;2023-09-07T05:43:22;98791.84;;;15.52;100.00
7433;BME280;32233;49.500;7.764;2023-09-07T05:45:49;98789.13;;;15.22;100.00
7433;BME280;32233;49.500;7.764;2023-09-07T05:48:16;98795.31;;;15.34;100.00
7433;BME280;32233;49.500;7.764;2023-09-07T05:50:45;98793.72;;;14.97;100.00
7433;BME280;32233;49.500;7.764;2023-09-07T05:53:12;98792.72;;;14.73;100.00
7433;BME280;32233;49.500;7.764;2023-09-07T05:55:39;98799.88;;;14.54;100.00
7433;BME280;32233;49.500;7.764;2023-09-07T05:58:07;98803.78;;;14.45;100.00
7433;BME280;32233;49.500;7.764;2023-09-07T06:00:38;98805.97;;;14.29;100.00
7433;BME280;32233;49.500;7.764;2023-09-07T06:03:07;98803.13;;;14.24;100.00
7433;BME280;32233;49.500;7.764;2023-09-07T06:05:35;98802.16;;;14.19;100.00
7433;BME280;32233;49.500;7.764;2023-09-07T06:08:05;98803.75;;;14.26;100.00
7433;BME280;32233;49.500;7.764;2023-09-07T06:10:36;98801.34;;;14.43;100.00
7433;BME280;32233;49.500;7.764;2023-09-07T06:13:07;98801.72;;;14.47;100.00
7433;BME280;32233;49.500;7.764;2023-09-07T06:15:34;98808.28;;;14.51;100.00
7433;BME280;32233;49.500;7.764;2023-09-07T06:18:01;98806.00;;;14.54;100.00
7433;BME280;32233;49.500;7.764;2023-09-07T06:20:31;98811.56;;;14.46;100.00
7433;BME280;32233;49.500;7.764;2023-09-07T06:22:59;98812.44;;;14.65;100.00
7433;BME280;32233;49.500;7.764;2023-09-07T06:25:26;98816.63;;;14.79;100.00
7433;BME280;32233;49.500;7.764;2023-09-07T06:27:54;98814.47;;;14.88;100.00
7433;BME280;32233;49.500;7.764;2023-09-07T06:30:21;98814.72;;;15.05;100.00
7433;BME280;32233;49.500;7.764;2023-09-07T06:32:52;98810.00;;;15.07;100.00
7433;BME280;32233;49.500;7.764;2023-09-07T06:35:20;98812.06;;;15.23;100.00
7433;BME280;32233;49.500;7.764;2023-09-07T06:37:47;98819.03;;;15.24;100.00
7433;BME280;32233;49.500;7.764;2023-09-07T06:40:17;98815.53;;;15.42;100.00
7433;BME280;32233;49.500;7.764;2023-09-07T06:42:49;98822.31;;;15.56;100.00
7433;BME280;32233;49.500;7.764;2023-09-07T06:45:25;98824.09;;;15.81;100.00
7433;BME280;32233;49.500;7.764;2023-09-07T06:48:05;98821.38;;;15.99;100.00
7433;BME280;32233;49.500;7.764;2023-09-07T06:50:32;98821.41;;;16.11;100.00
7433;BME280;32233;49.500;7.764;2023-09-07T06:52:59;98822.38;;;16.28;100.00
7433;BME280;32233;49.500;7.764;2023-09-07T06:55:26;98824.75;;;16.60;100.00
7433;BME280;32233;49.500;7.764;2023-09-07T06:57:53;98826.06;;;16.93;100.00
7433;BME280;32233;49.500;7.764;2023-09-07T07:00:21;98833.72;;;17.01;100.00
7433;BME280;32233;49.500;7.764;2023-09-07T07:02:47;98835.91;;;17.16;100.00
7433;BME280;32233;49.500;7.764;2023-09-07T07:05:18;98836.38;;;17.24;100.00
7433;BME280;32233;49.500;7.764;2023-09-07T07:07:45;98835.41;;;17.30;100.00
7433;BME280;32233;49.500;7.764;2023-09-07T07:10:11;98830.25;;;17.52;100.00
7433;BME280;32233;49.500;7.764;2023-09-07T07:12:39;98828.91;;;17.78;100.00
7433;BME280;32233;49.500;7.764;2023-09-07T07:15:07;98827.72;;;17.86;100.00
7433;BME280;32233;49.500;7.764;2023-09-07T07:17:36;98830.81;;;17.95;100.00
7433;BME280;32233;49.500;7.764;2023-09-07T07:20:16;98827.28;;;18.06;100.00
7433;BME280;32233;49.500;7.764;2023-09-07T07:22:43;98827.72;;;18.31;100.00
7433;BME280;32233;49.500;7.764;2023-09-07T07:25:13;98827.31;;;18.56;100.00
7433;BME280;32233;49.500;7.764;2023-09-07T07:27:40;98820.75;;;18.64;100.00
7433;BME280;32233;49.500;7.764;2023-09-07T07:30:07;98823.34;;;18.93;99.66
7433;BME280;32233;49.500;7.764;2023-09-07T07:32:35;98824.22;;;19.37;95.79
7433;BME280;32233;49.500;7.764;2023-09-07T07:35:02;98828.91;;;19.96;88.11
7433;BME280;32233;49.500;7.764;2023-09-07T07:37:35;98828.25;;;20.38;84.00
7433;BME280;32233;49.500;7.764;2023-09-07T07:40:11;98829.66;;;20.77;82.48
7433;BME280;32233;49.500;7.764;2023-09-07T07:42:38;98834.53;;;21.28;78.93
7433;BME280;32233;49.500;7.764;2023-09-07T07:45:05;98829.22;;;21.38;80.06
7433;BME280;32233;49.500;7.764;2023-09-07T07:47:32;98825.22;;;23.55;67.45
7433;BME280;32233;49.500;7.764;2023-09-07T07:49:59;98817.75;;;25.47;59.42
7433;BME280;32233;49.500;7.764;2023-09-07T07:52:25;98822.31;;;26.13;56.22
7433;BME280;32233;49.500;7.764;2023-09-07T07:54:53;98823.53;;;24.87;61.19
7433;BME280;32233;49.500;7.764;2023-09-07T07:57:20;98824.47;;;23.99;63.36
7433;BME280;32233;49.500;7.764;2023-09-07T07:59:47;98820.50;;;23.32;65.57
7433;BME280;32233;49.500;7.764;2023-09-07T08:02:13;98822.38;;;23.26;67.31
7433;BME280;32233;49.500;7.764;2023-09-07T08:04:41;98821.03;;;23.18;67.98
7433;BME280;32233;49.500;7.764;2023-09-07T08:07:08;98822.38;;;23.26;64.94
7433;BME280;32233;49.500;7.764;2023-09-07T08:09:37;98826.78;;;22.91;69.70
7433;BME280;32233;49.500;7.764;2023-09-07T08:12:07;98826.22;;;22.89;67.67
7433;BME280;32233;49.500;7.764;2023-09-07T08:14:35;98820.06;;;22.63;70.83
7433;BME280;32233;49.500;7.764;2023-09-07T08:17:03;98825.19;;;22.29;72.92
7433;BME280;32233;49.500;7.764;2023-09-07T08:19:30;98829.75;;;22.39;71.44
7433;BME280;32233;49.500;7.764;2023-09-07T08:21:58;98830.03;;;22.27;73.10
7433;BME280;32233;49.500;7.764;2023-09-07T08:24:25;98823.81;;;22.32;74.11
7433;BME280;32233;49.500;7.764;2023-09-07T08:26:51;98822.75;;;22.53;71.36
7433;BME280;32233;49.500;7.764;2023-09-07T08:29:20;98825.47;;;22.38;73.37
7433;BME280;32233;49.500;7.764;2023-09-07T08:31:47;98824.38;;;22.44;73.59
7433;BME280;32233;49.500;7.764;2023-09-07T08:34:14;98824.91;;;22.61;70.72
7433;BME280;32233;49.500;7.764;2023-09-07T08:36:41;98829.50;;;22.50;71.34
7433;BME280;32233;49.500;7.764;2023-09-07T08:39:08;98824.63;;;22.68;70.74
7433;BME280;32233;49.500;7.764;2023-09-07T08:41:40;98819.78;;;22.60;72.19
7433;BME280;32233;49.500;7.764;2023-09-07T08:44:28;98820.59;;;22.55;73.01
7433;BME280;32233;49.500;7.764;2023-09-07T08:46:55;98816.25;;;22.69;70.97
7433;BME280;32233;49.500;7.764;2023-09-07T08:49:22;98815.72;;;22.93;72.10
7433;BME280;32233;49.500;7.764;2023-09-07T08:51:50;98809.47;;;23.18;72.41
7433;BME280;32233;49.500;7.764;2023-09-07T08:54:16;98811.00;;;23.44;68.49
7433;BME280;32233;49.500;7.764;2023-09-07T08:56:44;98810.38;;;24.07;67.04
7433;BME280;32233;49.500;7.764;2023-09-07T08:59:11;98811.56;;;23.91;67.76
7433;BME280;32233;49.500;7.764;2023-09-07T09:01:39;98815.50;;;23.59;68.95
7433;BME280;32233;49.500;7.764;2023-09-07T09:04:07;98808.53;;;23.53;68.76
7433;BME280;32233;49.500;7.764;2023-09-07T09:06:34;98811.00;;;23.44;66.09
7433;BME280;32233;49.500;7.764;2023-09-07T09:09:01;98810.44;;;23.47;68.88
7433;BME280;32233;49.500;7.764;2023-09-07T09:11:31;98812.75;;;23.75;66.88
7433;BME280;32233;49.500;7.764;2023-09-07T09:13:57;98813.06;;;23.68;67.47
7433;BME280;32233;49.500;7.764;2023-09-07T09:16:25;98805.19;;;23.77;68.29
7433;BME280;32233;49.500;7.764;2023-09-07T09:18:53;98803.06;;;23.73;67.71
7433;BME280;32233;49.500;7.764;2023-09-07T09:21:21;98806.25;;;23.81;66.77
7433;BME280;32233;49.500;7.764;2023-09-07T09:23:51;98802.38;;;23.92;66.21
7433;BME280;32233;49.500;7.764;2023-09-07T09:26:18;98795.97;;;23.83;66.10
7433;BME280;32233;49.500;7.764;2023-09-07T09:28:45;98802.13;;;23.93;65.92
7433;BME280;32233;49.500;7.764;2023-09-07T09:31:13;98804.19;;;24.07;65.12
7433;BME280;32233;49.500;7.764;2023-09-07T09:33:41;98797.31;;;23.85;67.37
7433;BME280;32233;49.500;7.764;2023-09-07T09:36:08;98793.94;;;24.04;64.05
7433;BME280;32233;49.500;7.764;2023-09-07T09:38:35;98794.41;;;23.71;65.85
7433;BME280;32233;49.500;7.764;2023-09-07T09:41:04;98796.25;;;24.20;63.05
7433;BME280;32233;49.500;7.764;2023-09-07T09:43:31;98780.63;;;24.52;62.53
7433;BME280;32233;49.500;7.764;2023-09-07T09:45:59;98779.91;;;24.36;64.62
7433;BME280;32233;49.500;7.764;2023-09-07T09:48:27;98781.91;;;24.25;63.25
7433;BME280;32233;49.500;7.764;2023-09-07T09:50:54;98777.97;;;24.46;63.81
7433;BME280;32233;49.500;7.764;2023-09-07T09:53:22;98780.63;;;24.52;65.51
7433;BME280;32233;49.500;7.764;2023-09-07T09:55:50;98778.41;;;24.59;65.36
7433;BME280;32233;49.500;7.764;2023-09-07T09:58:19;98776.09;;;24.47;64.50
7433;BME280;32233;49.500;7.764;2023-09-07T10:00:48;98772.72;;;24.60;63.28
7433;BME280;32233;49.500;7.764;2023-09-07T10:06:18;98762.50;;;24.81;65.76
7433;BME280;32233;49.500;7.764;2023-09-07T10:09:04;98759.53;;;24.83;63.69
7433;BME280;32233;49.500;7.764;2023-09-07T10:11:35;98759.22;;;24.84;63.06
7433;BME280;32233;49.500;7.764;2023-09-07T10:14:07;98755.09;;;24.92;63.76
7433;BME280;32233;49.500;7.764;2023-09-07T10:16:50;98757.06;;;25.10;64.25
7433;BME280;32233;49.500;7.764;2023-09-07T10:19:20;98748.41;;;25.08;62.90
7433;BME280;32233;49.500;7.764;2023-09-07T10:21:47;98747.53;;;25.37;60.06
7433;BME280;32233;49.500;7.764;2023-09-07T10:26:59;98754.00;;;25.17;62.01
7433;BME280;32233;49.500;7.764;2023-09-07T10:29:26;98751.81;;;24.95;61.64
7433;BME280;32233;49.500;7.764;2023-09-07T10:31:54;98753.28;;;25.06;61.59
7433;BME280;32233;49.500;7.764;2023-09-07T10:34:21;98747.88;;;25.06;62.23
7433;BME280;32233;49.500;7.764;2023-09-07T10:36:55;98752.97;;;25.13;61.01
7433;BME280;32233;49.500;7.764;2023-09-07T10:39:22;98748.56;;;25.41;61.01
7433;BME280;32233;49.500;7.764;2023-09-07T10:41:49;98739.25;;;25.28;62.02
7433;BME280;32233;49.500;7.764;2023-09-07T10:44:15;98740.56;;;25.31;61.23
7433;BME280;32233;49.500;7.764;2023-09-07T10:46:42;98737.03;;;25.11;61.54
7433;BME280;32233;49.500;7.764;2023-09-07T10:49:11;98735.47;;;25.67;59.11
7433;BME280;32233;49.500;7.764;2023-09-07T10:51:43;98738.66;;;25.93;57.66
7433;BME280;32233;49.500;7.764;2023-09-07T10:54:17;98741.06;;;25.94;56.87
7433;BME280;32233;49.500;7.764;2023-09-07T10:56:45;98738.81;;;26.15;57.32
7433;BME280;32233;49.500;7.764;2023-09-07T10:59:16;98742.88;;;25.99;59.68
7433;BME280;32233;49.500;7.764;2023-09-07T11:01:44;98728.16;;;26.05;57.24
7433;BME280;32233;49.500;7.764;2023-09-07T11:04:11;98732.81;;;26.18;57.64
7433;BME280;32233;49.500;7.764;2023-09-07T11:06:39;98729.97;;;26.42;56.30
7433;BME280;32233;49.500;7.764;2023-09-07T11:09:08;98725.44;;;26.38;56.54
7433;BME280;32233;49.500;7.764;2023-09-07T11:11:37;98727.34;;;26.37;55.29
7433;BME280;32233;49.500;7.764;2023-09-07T11:14:04;98724.09;;;26.22;56.24
7433;BME280;32233;49.500;7.764;2023-09-07T11:16:34;98722.31;;;26.31;56.32
7433;BME280;32233;49.500;7.764;2023-09-07T11:19:06;98719.25;;;26.18;58.04
7433;BME280;32233;49.500;7.764;2023-09-07T11:21:34;98715.41;;;26.38;58.75
7433;BME280;32233;49.500;7.764;2023-09-07T11:24:02;98720.16;;;26.60;57.96
7433;BME280;32233;49.500;7.764;2023-09-07T11:26:45;98706.72;;;26.97;55.31
7433;BME280;32233;49.500;7.764;2023-09-07T11:29:16;98707.34;;;26.80;53.85
7433;BME280;32233;49.500;7.764;2023-09-07T11:31:44;98703.22;;;26.96;52.10
7433;BME280;32233;49.500;7.764;2023-09-07T11:34:15;98710.25;;;27.25;50.05
7433;BME280;32233;49.500;7.764;2023-09-07T11:36:44;98707.81;;;27.59;49.93
7433;BME280;32233;49.500;7.764;2023-09-07T11:39:14;98703.44;;;27.86;46.49
7433;BME280;32233;49.500;7.764;2023-09-07T11:41:42;98694.19;;;28.09;49.11
7433;BME280;32233;49.500;7.764;2023-09-07T11:44:10;98697.28;;;28.48;48.10
7433;BME280;32233;49.500;7.764;2023-09-07T11:46:39;98701.91;;;28.87;44.28
7433;BME280;32233;49.500;7.764;2023-09-07T11:49:06;98693.41;;;29.28;43.93
7433;BME280;32233;49.500;7.764;2023-09-07T11:51:36;98696.28;;;29.84;43.70
7433;BME280;32233;49.500;7.764;2023-09-07T11:54:04;98694.09;;;29.69;40.91
7433;BME280;32233;49.500;7.764;2023-09-07T11:56:31;98685.25;;;29.89;42.89
7433;BME280;32233;49.500;7.764;2023-09-07T11:58:58;98683.50;;;29.67;42.42
7433;BME280;32233;49.500;7.764;2023-09-07T12:01:25;98691.00;;;29.53;40.28
7433;BME280;32233;49.500;7.764;2023-09-07T12:03:54;98689.38;;;29.43;40.36
7433;BME280;32233;49.500;7.764;2023-09-07T12:06:20;98679.94;;;29.84;40.27
7433;BME280;32233;49.500;7.764;2023-09-07T12:11:25;98676.78;;;32.55;35.46
7433;BME280;32233;49.500;7.764;2023-09-07T12:13:52;98671.75;;;32.00;36.97
7433;BME280;32233;49.500;7.764;2023-09-07T12:16:19;98671.53;;;33.24;33.29
7433;BME280;32233;49.500;7.764;2023-09-07T12:18:45;98668.25;;;33.87;32.87
7433;BME280;32233;49.500;7.764;2023-09-07T12:21:12;98672.66;;;34.19;31.80
7433;BME280;32233;49.500;7.764;2023-09-07T12:23:38;98663.09;;;33.97;32.59
7433;BME280;32233;49.500;7.764;2023-09-07T12:26:05;98667.56;;;33.09;31.56
7433;BME280;32233;49.500;7.764;2023-09-07T12:28:32;98666.66;;;32.68;33.95
7433;BME280;32233;49.500;7.764;2023-09-07T12:30:58;98664.56;;;32.90;34.23
7433;BME280;32233;49.500;7.764;2023-09-07T12:33:25;98658.31;;;32.77;33.67
7433;BME280;32233;49.500;7.764;2023-09-07T12:35:52;98659.47;;;34.09;31.23
7433;BME280;32233;49.500;7.764;2023-09-07T12:38:18;98650.19;;;34.30;31.84
7433;BME280;32233;49.500;7.764;2023-09-07T12:40:47;98655.59;;;34.26;29.95
7433;BME280;32233;49.500;7.764;2023-09-07T12:43:14;98657.63;;;34.13;30.34
7433;BME280;32233;49.500;7.764;2023-09-07T12:45:40;98664.06;;;33.77;31.87
7433;BME280;32233;49.500;7.764;2023-09-07T12:48:09;98663.00;;;32.76;33.35
7433;BME280;32233;49.500;7.764;2023-09-07T12:50:36;98660.84;;;32.94;33.12
7433;BME280;32233;49.500;7.764;2023-09-07T12:53:02;98670.59;;;33.72;31.04
7433;BME280;32233;49.500;7.764;2023-09-07T12:55:29;98665.56;;;33.34;33.31
7433;BME280;32233;49.500;7.764;2023-09-07T12:57:56;98664.81;;;34.49;30.88
7433;BME280;32233;49.500;7.764;2023-09-07T13:00:23;98660.72;;;33.84;30.04
7433;BME280;32233;49.500;7.764;2023-09-07T13:02:49;98663.19;;;33.20;31.74
7433;BME280;32233;49.500;7.764;2023-09-07T13:05:16;98659.13;;;33.42;30.78
7433;BME280;32233;49.500;7.764;2023-09-07T13:07:43;98664.81;;;33.62;30.70
7433;BME280;32233;49.500;7.764;2023-09-07T13:10:10;98655.69;;;32.68;33.08
7433;BME280;32233;49.500;7.764;2023-09-07T13:12:37;98651.00;;;32.81;32.58
7433;BME280;32233;49.500;7.764;2023-09-07T13:15:04;98646.47;;;32.73;32.66
7433;BME280;32233;49.500;7.764;2023-09-07T13:17:31;98639.94;;;32.77;34.00